Time;durP1;ratioP1;P1;durP2;ratioP2;P2;SDS_P1;SDS_P2;PMS_P1;PMS_P2;Temp;Humidity;BMP_temperature;BMP_pressure;BME280_temperature;BME280_humidity;BME280_pressure;Samples;Min_cycle;Max_cycle;Signal;HPM_P1;HPM_P2
2021/07/22 00:03:12;;;;;;;11.40;4.15;;;;;;;17.06;61.15;99993.65;531229;1088;117551;-59
2021/07/22 00:13:19;;;;;;;6.67;4.53;;;;;;;17.11;61.43;99999.42;530475;1089;116338;-59
2021/07/22 00:23:25;;;;;;;5.27;4.40;;;;;;;17.01;61.20;100002.00;528370;1089;115963;-59
2021/07/22 00:33:32;;;;;;;5.75;4.35;;;;;;;16.88;61.77;99998.67;514818;1088;116015;-59
2021/07/22 00:43:39;;;;;;;5.60;4.00;;;;;;;16.81;61.76;99998.36;529574;1089;116294;-59
2021/07/22 00:53:46;;;;;;;6.37;4.37;;;;;;;16.89;62.32;99997.70;531253;1090;115532;-59
2021/07/22 01:03:53;;;;;;;3.80;3.33;;;;;;;17.01;62.33;99994.04;531260;1089;115714;-59
2021/07/22 01:14:00;;;;;;;13.50;6.00;;;;;;;16.93;62.01;99989.36;530537;1089;117321;-59
2021/07/22 01:24:07;;;;;;;9.63;4.60;;;;;;;16.76;62.40;99982.83;531352;1089;116615;-59
2021/07/22 01:34:14;;;;;;;5.78;3.48;;;;;;;16.71;63.04;99992.99;530532;1090;116078;-58
2021/07/22 01:44:21;;;;;;;5.93;4.50;;;;;;;16.81;63.45;99982.44;514865;1088;115625;-59
2021/07/22 01:54:28;;;;;;;6.63;4.70;;;;;;;16.76;63.46;99982.00;523467;1089;115795;-59
2021/07/22 02:04:36;;;;;;;6.50;5.10;;;;;;;16.64;62.89;99976.76;529318;1090;117355;-60
2021/07/22 02:14:43;;;;;;;5.35;4.85;;;;;;;16.64;63.54;99990.02;522425;1089;115970;-59
2021/07/22 02:24:50;;;;;;;8.63;4.60;;;;;;;16.67;63.33;99991.55;531247;1088;115726;-59
2021/07/22 02:34:56;;;;;;;8.83;4.93;;;;;;;16.60;63.68;99995.70;530599;1089;116533;-58
2021/07/22 02:45:04;;;;;;;6.13;5.50;;;;;;;16.50;63.86;99985.00;531289;1089;115697;-59
2021/07/22 02:55:14;;;;;;;7.23;5.05;;;;;;;16.46;64.12;99999.48;530535;1089;115765;-57
2021/07/22 03:05:20;;;;;;;6.30;4.60;;;;;;;16.59;64.51;100002.80;526872;1088;115745;-58
2021/07/22 03:15:28;;;;;;;7.07;4.77;;;;;;;16.66;64.54;100006.63;531200;1089;115729;-59
2021/07/22 03:25:37;;;;;;;9.07;5.17;;;;;;;16.80;64.55;100013.44;530614;1089;116332;-59
2021/07/22 03:35:44;;;;;;;7.20;4.60;;;;;;;16.76;64.02;100021.78;531254;1089;116439;-59
2021/07/22 03:45:56;;;;;;;6.20;4.20;;;;;;;16.91;64.27;100024.93;531204;1089;115973;-58
2021/07/22 03:56:04;;;;;;;7.43;5.40;;;;;;;16.90;63.92;100025.91;530408;1089;179086;-59
2021/07/22 04:06:11;;;;;;;9.03;5.40;;;;;;;16.89;64.22;100024.22;531227;1088;116749;-58
2021/07/22 04:16:17;;;;;;;6.80;5.07;;;;;;;16.92;64.18;100022.16;530515;1089;117750;-58
2021/07/22 04:26:24;;;;;;;7.03;4.80;;;;;;;17.12;63.99;100022.33;531144;1090;116961;-59
2021/07/22 04:36:33;;;;;;;9.47;6.67;;;;;;;17.44;63.69;100025.84;531303;1090;116455;-59
2021/07/22 04:46:40;;;;;;;7.13;6.10;;;;;;;17.55;63.63;100030.23;530415;1089;116993;-59
2021/07/22 04:56:47;;;;;;;9.10;6.87;;;;;;;17.77;63.42;100034.50;531225;1089;116213;-58
2021/07/22 05:06:53;;;;;;;7.63;4.83;;;;;;;18.12;63.23;100027.06;531297;1089;117185;-53
2021/07/22 05:17:00;;;;;;;8.03;5.83;;;;;;;18.46;62.89;100021.38;531081;1090;117245;-52
2021/07/22 05:27:07;;;;;;;13.43;5.23;;;;;;;18.66;62.73;100032.03;531779;1089;117227;-56
2021/07/22 05:37:17;;;;;;;8.50;6.15;;;;;;;18.96;62.02;100033.67;531005;1090;116431;-56
2021/07/22 05:47:25;;;;;;;8.17;5.17;;;;;;;19.42;61.43;100043.70;531736;1089;116644;-59
2021/07/22 05:57:33;;;;;;;10.87;4.67;;;;;;;20.05;60.68;100034.20;531869;1090;116108;-58
2021/07/22 06:07:40;;;;;;;7.47;3.90;;;;;;;20.82;59.17;100035.61;530946;1090;117893;-57
2021/07/22 06:17:46;;;;;;;6.90;4.07;;;;;;;21.24;57.67;100050.13;531447;1090;116968;-58
2021/07/22 06:27:52;;;;;;;10.07;4.50;;;;;;;21.64;56.67;100031.78;531011;1088;117341;-58
2021/07/22 06:37:59;;;;;;;6.77;3.87;;;;;;;22.53;55.14;100040.30;530345;1089;117242;-58
2021/07/22 06:48:06;;;;;;;8.67;4.73;;;;;;;23.63;53.92;100035.48;531051;1090;117763;-59
2021/07/22 06:58:13;;;;;;;4.65;4.25;;;;;;;24.68;51.02;100039.78;530198;1090;116602;-57
2021/07/22 07:08:19;;;;;;;5.73;3.47;;;;;;;25.53;49.46;100034.31;531115;1090;116849;-58
2021/07/22 07:18:26;;;;;;;4.60;3.35;;;;;;;26.90;47.32;100041.83;531448;1090;116756;-59
2021/07/22 07:28:32;;;;;;;3.93;3.00;;;;;;;28.00;44.93;100038.53;530973;1088;116849;-59
2021/07/22 07:38:39;;;;;;;5.63;2.73;;;;;;;28.44;42.69;100030.16;531464;1090;116099;-58
2021/07/22 07:48:45;;;;;;;8.15;2.83;;;;;;;30.38;40.68;100032.63;513747;1089;20001072;-58
2021/07/22 07:58:52;;;;;;;4.45;2.60;;;;;;;32.53;37.37;100024.04;530985;1088;117030;-58
2021/07/22 08:08:59;;;;;;;10.37;3.20;;;;;;;34.59;34.42;100025.84;523475;1089;117376;-49
2021/07/22 08:19:05;;;;;;;6.45;2.60;;;;;;;34.56;32.41;100023.62;531315;1088;116722;-56
2021/07/22 08:29:11;;;;;;;6.10;2.10;;;;;;;33.00;32.04;100025.97;531205;1089;117272;-56
2021/07/22 08:39:18;;;;;;;3.83;2.60;;;;;;;31.62;31.98;100022.13;531155;1090;116122;-55
2021/07/22 08:49:24;;;;;;;4.17;2.20;;;;;;;31.41;32.61;100014.23;530689;1089;118379;-56
2021/07/22 08:59:32;;;;;;;6.43;2.60;;;;;;;30.82;32.86;100003.76;531661;1089;116585;-55
2021/07/22 09:09:39;;;;;;;4.60;2.83;;;;;;;30.16;32.91;100003.19;531191;1090;116620;-54
2021/07/22 09:19:44;;;;;;;;;;;;;;;29.63;33.50;100011.34;530428;1089;116412;-55
2021/07/22 09:29:58;;;;;;;7.80;3.07;;;;;;;27.92;34.96;100009.87;531600;1090;102632;-53
2021/07/22 09:40:08;;;;;;;5.37;2.57;;;;;;;27.47;35.42;100015.65;531413;1088;117303;-54
2021/07/22 09:50:16;;;;;;;3.70;2.47;;;;;;;26.72;36.59;100010.77;531377;1090;117083;-54
2021/07/22 10:00:24;;;;;;;3.33;2.97;;;;;;;26.42;37.38;100002.88;531347;1090;116387;-54
2021/07/22 10:10:31;;;;;;;4.85;2.65;;;;;;;26.62;38.27;99996.84;530575;1089;116658;-52
2021/07/22 10:20:39;;;;;;;4.40;2.50;;;;;;;26.06;38.93;100001.84;531637;1089;116029;-53
2021/07/22 10:30:45;;;;;;;;;;;;;;;24.45;41.00;100011.11;531216;1089;116319;-53
2021/07/22 10:40:54;;;;;;;9.10;3.43;;;;;;;23.62;42.83;100003.52;525463;1089;103117;-54
2021/07/22 10:51:12;;;;;;;4.57;2.97;;;;;;;22.86;43.99;100001.98;531306;1089;116475;-55
2021/07/22 11:01:58;;;;;;;8.83;3.63;;;;;;;22.49;45.16;100006.83;530545;1088;116347;-53
2021/07/22 11:12:05;;;;;;;6.00;3.98;;;;;;;22.38;46.28;99999.95;531763;1089;116880;-54
2021/07/22 11:22:11;;;;;;;8.20;4.27;;;;;;;22.57;46.83;100005.17;530823;1089;115967;-53
2021/07/22 11:32:26;;;;;;;3.97;2.67;;;;;;;22.52;46.59;100003.84;531211;1090;116287;-53
2021/07/22 11:42:32;;;;;;;4.17;3.27;;;;;;;22.61;47.07;99995.80;531384;1090;116155;-55
2021/07/22 11:52:39;;;;;;;8.93;2.93;;;;;;;22.71;46.51;99990.30;531072;1089;116815;-58
2021/07/22 12:02:47;;;;;;;7.63;4.83;;;;;;;22.70;46.18;99980.59;531648;1089;117011;-55
2021/07/22 12:13:00;;;;;;;21.53;5.13;;;;;;;22.79;47.16;99979.56;531845;1090;117108;-65
2021/07/22 12:23:30;;;;;;;6.93;3.30;;;;;;;23.11;47.32;99974.34;530977;1090;117956;-65
2021/07/22 12:33:36;;;;;;;11.47;4.30;;;;;;;23.56;47.10;99969.35;531702;1089;116747;-67
2021/07/22 12:43:51;;;;;;;4.77;3.43;;;;;;;23.96;45.82;99963.95;530374;1089;116056;-56
2021/07/22 12:53:57;;;;;;;15.20;4.50;;;;;;;23.65;46.24;99960.27;531836;1089;116922;-64
2021/07/22 13:04:04;;;;;;;6.73;2.77;;;;;;;22.99;47.35;99957.78;531781;1089;117333;-63
2021/07/22 13:14:10;;;;;;;5.30;2.83;;;;;;;22.29;47.96;99947.45;531867;1090;116972;-64
2021/07/22 13:24:17;;;;;;;5.57;2.97;;;;;;;21.69;49.16;99942.16;531829;1088;117342;-60
2021/07/22 13:34:21;;;;;;;;;;;;;;;21.66;49.81;99934.47;531035;1089;116858;-62
2021/07/22 13:44:28;;;;;;;5.60;3.03;;;;;;;21.51;50.20;99942.23;532043;1090;103517;-59
2021/07/22 13:54:35;;;;;;;4.47;2.70;;;;;;;21.62;50.90;99927.76;531684;1089;116523;-60
2021/07/22 14:04:41;;;;;;;5.80;2.70;;;;;;;21.79;50.67;99934.02;530980;1089;118102;-59
2021/07/22 14:14:49;;;;;;;3.47;2.63;;;;;;;22.17;50.06;99917.53;531681;1089;116655;-58
2021/07/22 14:24:55;;;;;;;3.17;2.20;;;;;;;22.56;48.75;99912.53;531776;1089;116737;-60
2021/07/22 14:35:02;;;;;;;4.70;2.97;;;;;;;23.02;48.10;99901.20;530823;1088;116667;-59
2021/07/22 14:45:10;;;;;;;4.13;2.60;;;;;;;23.49;46.73;99896.86;531055;1090;117337;-59
2021/07/22 14:55:16;;;;;;;5.03;2.57;;;;;;;23.68;45.56;99887.54;530963;1089;116460;-58
2021/07/22 15:05:23;;;;;;;18.27;3.73;;;;;;;23.89;44.86;99872.66;531352;1090;117667;-57
2021/07/22 15:15:30;;;;;;;4.30;1.90;;;;;;;23.70;44.49;99864.06;531161;1089;117897;-56
2021/07/22 15:25:36;;;;;;;4.60;2.80;;;;;;;23.76;44.64;99857.16;530788;1089;117016;-58
2021/07/22 15:35:43;;;;;;;4.77;2.67;;;;;;;23.62;44.39;99862.28;531854;1089;116517;-57
2021/07/22 15:45:50;;;;;;;4.23;2.70;;;;;;;23.79;44.84;99846.92;531784;1089;116685;-58
2021/07/22 15:55:57;;;;;;;4.33;3.20;;;;;;;23.56;45.19;99838.89;531037;1088;116389;-56
2021/07/22 16:06:04;;;;;;;4.33;2.97;;;;;;;23.30;45.86;99831.98;531669;1088;117440;-55
2021/07/22 16:16:10;;;;;;;4.30;2.73;;;;;;;23.31;46.62;99825.61;513074;1088;20001983;-54
2021/07/22 16:26:17;;;;;;;4.67;2.97;;;;;;;23.11;46.78;99811.80;531557;1089;117494;-59
2021/07/22 16:36:24;;;;;;;10.17;2.57;;;;;;;22.91;46.78;99814.92;531679;1089;117298;-59
2021/07/22 16:46:30;;;;;;;4.93;2.50;;;;;;;22.88;47.23;99807.22;530749;1088;116908;-59
2021/07/22 16:56:37;;;;;;;6.07;3.27;;;;;;;22.63;47.38;99799.28;531575;1090;116065;-59
2021/07/22 17:06:44;;;;;;;3.17;2.20;;;;;;;22.27;47.67;99788.98;531220;1089;116352;-58
2021/07/22 17:16:51;;;;;;;7.37;3.73;;;;;;;21.90;48.67;99803.73;530824;1090;116186;-60
2021/07/22 17:26:58;;;;;;;4.60;3.33;;;;;;;21.69;49.09;99781.83;531758;1090;116301;-60
2021/07/22 17:37:05;;;;;;;5.27;3.43;;;;;;;21.53;49.74;99779.98;531843;1089;117393;-60
2021/07/22 17:47:11;;;;;;;5.57;3.47;;;;;;;21.31;49.96;99776.09;531552;1088;117095;-61
2021/07/22 17:57:18;;;;;;;3.30;3.00;;;;;;;21.02;50.25;99773.84;531103;1089;116867;-61
2021/07/22 18:07:24;;;;;;;4.97;3.67;;;;;;;20.82;50.77;99774.10;530193;1090;116143;-61
2021/07/22 18:17:31;;;;;;;5.67;3.30;;;;;;;20.60;51.50;99783.49;522706;1089;10001696;-60
2021/07/22 18:27:37;;;;;;;5.00;3.17;;;;;;;20.43;51.85;99768.23;531610;1089;116658;-60
2021/07/22 18:37:45;;;;;;;3.40;2.70;;;;;;;20.28;53.27;99769.83;515855;1089;154296;-56
2021/07/22 18:47:52;;;;;;;6.90;3.47;;;;;;;20.13;54.15;99772.22;523428;1089;116541;-58
2021/07/22 18:57:58;;;;;;;3.47;3.13;;;;;;;19.93;55.08;99777.73;531249;1090;117421;-57
2021/07/22 19:08:05;;;;;;;4.03;3.43;;;;;;;19.81;55.96;99782.46;530457;1088;116329;-57
2021/07/22 19:18:13;;;;;;;5.63;3.70;;;;;;;19.71;56.77;99784.37;531159;1089;117681;-57
2021/07/22 19:28:20;;;;;;;6.18;5.48;;;;;;;19.71;57.26;99787.85;530434;1089;116658;-56
2021/07/22 19:38:27;;;;;;;7.00;5.10;;;;;;;19.71;57.44;99782.52;531229;1090;116089;-57
2021/07/22 19:48:34;;;;;;;8.15;5.70;;;;;;;19.66;58.52;99786.64;531495;1090;116542;-58
2021/07/22 19:58:41;;;;;;;7.47;4.60;;;;;;;19.39;58.93;99793.72;530640;1089;116513;-57
2021/07/22 20:08:48;;;;;;;9.83;5.70;;;;;;;19.16;59.50;99788.82;530126;1089;116398;-56
2021/07/22 20:18:55;;;;;;;9.60;6.07;;;;;;;19.15;59.69;99798.61;528894;1089;118512;-57
2021/07/22 20:29:01;;;;;;;15.67;6.30;;;;;;;19.11;60.11;99793.77;530432;1089;117022;-57
2021/07/22 20:39:08;;;;;;;9.60;7.10;;;;;;;18.84;60.97;99790.08;531324;1088;117059;-57
2021/07/22 20:49:15;;;;;;;10.83;6.50;;;;;;;18.63;61.53;99788.48;530407;1090;116524;-57
2021/07/22 20:59:22;;;;;;;12.67;8.17;;;;;;;18.55;62.67;99786.55;531013;1089;116672;-58
2021/07/22 21:09:31;;;;;;;14.20;7.30;;;;;;;18.68;62.74;99783.58;531141;1089;117592;-57
2021/07/22 21:19:38;;;;;;;9.83;7.17;;;;;;;18.74;62.93;99779.48;530444;1089;117512;-58
2021/07/22 21:29:44;;;;;;;15.00;8.28;;;;;;;18.75;63.04;99774.00;522928;1089;116306;-59
2021/07/22 21:39:50;;;;;;;7.77;7.07;;;;;;;18.63;63.62;99776.03;528881;1089;116253;-59
2021/07/22 21:49:58;;;;;;;8.50;6.67;;;;;;;18.59;63.63;99765.83;530519;1088;116184;-59
2021/07/22 22:00:08;;;;;;;12.07;7.50;;;;;;;18.50;64.29;99764.89;516184;1089;116642;-57
2021/07/22 22:10:15;;;;;;;12.17;7.77;;;;;;;18.53;64.48;99771.75;513243;1089;116956;-57
2021/07/22 22:20:21;;;;;;;11.43;7.87;;;;;;;18.43;64.83;99777.08;513400;1089;116723;-57
2021/07/22 22:30:28;;;;;;;12.57;8.40;;;;;;;18.25;64.98;99771.68;514402;1089;116254;-58
2021/07/22 22:40:36;;;;;;;13.85;8.10;;;;;;;18.14;65.29;99775.36;513127;1088;165864;-58
2021/07/22 22:50:43;;;;;;;13.60;9.43;;;;;;;18.16;65.74;99784.02;514884;1089;116118;-59
2021/07/22 23:00:50;;;;;;;12.80;9.10;;;;;;;18.19;65.98;99773.09;518174;1090;116809;-59
2021/07/22 23:10:57;;;;;;;12.63;10.07;;;;;;;18.22;66.20;99774.63;521368;1089;116950;-58
2021/07/22 23:21:04;;;;;;;11.47;9.90;;;;;;;18.15;66.65;99772.53;527185;1089;116320;-59
2021/07/22 23:31:10;;;;;;;16.73;10.80;;;;;;;18.04;66.71;99765.58;530680;1089;116245;-52
2021/07/22 23:41:17;;;;;;;14.20;10.10;;;;;;;18.06;66.91;99763.61;530954;1090;117487;-59
2021/07/22 23:51:23;;;;;;;13.60;11.20;;;;;;;18.02;66.94;99761.34;531680;1089;117641;-59
